< < Back
Terminal Aerodrome Forecast


Current Version              Previous Versions:   1  2  3  4  5  6  7  8  9  

Terminal Aerodrome Forecast

580
FTUS42 KGSP 230900 AAA
TAFAVL
TAF AMD
KAVL 230901Z 2309/2406 35009G17KT P6SM SKC
     FM231400 33015G24KT P6SM SKC
     FM240000 33009KT P6SM SKC
     FM240400 33005KT P6SM SKC=



Latest METAR

174
SAUS70 KWBC 240400 RRH
MTRAVL
METAR KAVL 240354Z AUTO 36008KT 10SM CLR 12/M03 A3003 RMK AO2 SLP155
T01221028


USA.gov is the U.S. government's official web portal to all federal, state and local government web resources and services.